sensor_id;sensor_type;location;lat;lon;timestamp;P1;durP1;ratioP1;P2;durP2;ratioP2
20124;SDS011;10223;50.862;4.360;2023-09-19T00:00:20;7.30;;;1.60;;
20124;SDS011;10223;50.862;4.360;2023-09-19T00:02:53;11.80;;;2.10;;
20124;SDS011;10223;50.862;4.360;2023-09-19T00:05:24;13.47;;;2.30;;
20124;SDS011;10223;50.862;4.360;2023-09-19T00:07:53;11.48;;;2.47;;
20124;SDS011;10223;50.862;4.360;2023-09-19T00:10:20;10.43;;;1.90;;
20124;SDS011;10223;50.862;4.360;2023-09-19T00:12:49;9.23;;;2.20;;
20124;SDS011;10223;50.862;4.360;2023-09-19T00:15:18;12.70;;;2.07;;
20124;SDS011;10223;50.862;4.360;2023-09-19T00:17:45;10.20;;;2.17;;
20124;SDS011;10223;50.862;4.360;2023-09-19T00:20:12;17.47;;;3.20;;
20124;SDS011;10223;50.862;4.360;2023-09-19T00:22:42;14.50;;;2.53;;
20124;SDS011;10223;50.862;4.360;2023-09-19T00:25:09;9.40;;;2.20;;
20124;SDS011;10223;50.862;4.360;2023-09-19T00:27:37;7.87;;;1.87;;
20124;SDS011;10223;50.862;4.360;2023-09-19T00:30:07;10.83;;;2.10;;
20124;SDS011;10223;50.862;4.360;2023-09-19T00:32:40;11.57;;;2.23;;
20124;SDS011;10223;50.862;4.360;2023-09-19T00:35:07;15.23;;;2.53;;
20124;SDS011;10223;50.862;4.360;2023-09-19T00:37:35;9.10;;;1.67;;
20124;SDS011;10223;50.862;4.360;2023-09-19T00:40:03;12.63;;;2.30;;
20124;SDS011;10223;50.862;4.360;2023-09-19T00:42:30;14.43;;;2.60;;
20124;SDS011;10223;50.862;4.360;2023-09-19T00:44:58;12.37;;;2.10;;
20124;SDS011;10223;50.862;4.360;2023-09-19T00:47:28;11.37;;;2.73;;
20124;SDS011;10223;50.862;4.360;2023-09-19T00:49:57;11.47;;;2.27;;
20124;SDS011;10223;50.862;4.360;2023-09-19T00:52:24;13.50;;;2.50;;
20124;SDS011;10223;50.862;4.360;2023-09-19T00:54:51;13.87;;;2.37;;
20124;SDS011;10223;50.862;4.360;2023-09-19T00:57:18;18.57;;;2.80;;
20124;SDS011;10223;50.862;4.360;2023-09-19T00:59:47;13.30;;;2.13;;
20124;SDS011;10223;50.862;4.360;2023-09-19T01:02:16;10.63;;;2.63;;
20124;SDS011;10223;50.862;4.360;2023-09-19T01:04:43;8.53;;;1.50;;
20124;SDS011;10223;50.862;4.360;2023-09-19T01:07:12;10.33;;;1.97;;
20124;SDS011;10223;50.862;4.360;2023-09-19T01:09:40;8.80;;;2.30;;
20124;SDS011;10223;50.862;4.360;2023-09-19T01:12:08;17.27;;;2.83;;
20124;SDS011;10223;50.862;4.360;2023-09-19T01:14:38;14.47;;;2.23;;
20124;SDS011;10223;50.862;4.360;2023-09-19T01:17:14;14.43;;;2.87;;
20124;SDS011;10223;50.862;4.360;2023-09-19T01:20:00;10.50;;;2.40;;
20124;SDS011;10223;50.862;4.360;2023-09-19T01:22:42;17.00;;;2.43;;
20124;SDS011;10223;50.862;4.360;2023-09-19T01:25:32;15.93;;;2.20;;
20124;SDS011;10223;50.862;4.360;2023-09-19T01:28:20;15.93;;;2.30;;
20124;SDS011;10223;50.862;4.360;2023-09-19T01:30:56;19.47;;;2.47;;
20124;SDS011;10223;50.862;4.360;2023-09-19T01:33:25;20.00;;;2.77;;
20124;SDS011;10223;50.862;4.360;2023-09-19T01:35:52;9.63;;;1.87;;
20124;SDS011;10223;50.862;4.360;2023-09-19T01:38:22;16.20;;;2.90;;
20124;SDS011;10223;50.862;4.360;2023-09-19T01:40:52;9.07;;;2.33;;
20124;SDS011;10223;50.862;4.360;2023-09-19T01:43:26;16.70;;;2.50;;
20124;SDS011;10223;50.862;4.360;2023-09-19T01:45:59;22.90;;;3.37;;
20124;SDS011;10223;50.862;4.360;2023-09-19T01:48:33;16.63;;;2.33;;
20124;SDS011;10223;50.862;4.360;2023-09-19T01:51:05;11.07;;;2.27;;
20124;SDS011;10223;50.862;4.360;2023-09-19T01:53:34;10.93;;;2.43;;
20124;SDS011;10223;50.862;4.360;2023-09-19T01:56:04;9.13;;;1.80;;
20124;SDS011;10223;50.862;4.360;2023-09-19T01:58:37;12.30;;;2.47;;
20124;SDS011;10223;50.862;4.360;2023-09-19T02:01:10;13.07;;;2.57;;
20124;SDS011;10223;50.862;4.360;2023-09-19T02:03:41;13.30;;;2.47;;
20124;SDS011;10223;50.862;4.360;2023-09-19T02:06:13;13.70;;;2.43;;
20124;SDS011;10223;50.862;4.360;2023-09-19T02:08:40;14.97;;;2.60;;
20124;SDS011;10223;50.862;4.360;2023-09-19T02:11:07;14.23;;;2.20;;
20124;SDS011;10223;50.862;4.360;2023-09-19T02:13:34;17.07;;;2.60;;
20124;SDS011;10223;50.862;4.360;2023-09-19T02:16:01;10.00;;;1.97;;
20124;SDS011;10223;50.862;4.360;2023-09-19T02:18:30;17.10;;;2.03;;
20124;SDS011;10223;50.862;4.360;2023-09-19T02:21:00;11.93;;;2.37;;
20124;SDS011;10223;50.862;4.360;2023-09-19T02:23:27;15.83;;;2.57;;
20124;SDS011;10223;50.862;4.360;2023-09-19T02:25:55;19.10;;;2.90;;
20124;SDS011;10223;50.862;4.360;2023-09-19T02:28:25;18.37;;;2.70;;
20124;SDS011;10223;50.862;4.360;2023-09-19T02:30:55;12.37;;;2.17;;
20124;SDS011;10223;50.862;4.360;2023-09-19T02:33:22;10.53;;;2.43;;
20124;SDS011;10223;50.862;4.360;2023-09-19T02:35:53;11.77;;;2.03;;
20124;SDS011;10223;50.862;4.360;2023-09-19T02:38:22;14.00;;;2.77;;
20124;SDS011;10223;50.862;4.360;2023-09-19T02:40:50;15.60;;;2.43;;
20124;SDS011;10223;50.862;4.360;2023-09-19T02:43:16;11.00;;;2.30;;
20124;SDS011;10223;50.862;4.360;2023-09-19T02:45:44;14.20;;;1.97;;
20124;SDS011;10223;50.862;4.360;2023-09-19T02:48:12;13.87;;;2.43;;
20124;SDS011;10223;50.862;4.360;2023-09-19T02:50:40;16.67;;;2.93;;
20124;SDS011;10223;50.862;4.360;2023-09-19T02:53:08;15.27;;;2.70;;
20124;SDS011;10223;50.862;4.360;2023-09-19T02:55:37;13.30;;;2.00;;
20124;SDS011;10223;50.862;4.360;2023-09-19T02:58:05;10.83;;;2.27;;
20124;SDS011;10223;50.862;4.360;2023-09-19T03:00:33;10.40;;;1.90;;
20124;SDS011;10223;50.862;4.360;2023-09-19T03:03:00;14.90;;;2.27;;
20124;SDS011;10223;50.862;4.360;2023-09-19T03:05:28;15.60;;;2.70;;
20124;SDS011;10223;50.862;4.360;2023-09-19T03:07:55;15.30;;;2.60;;
20124;SDS011;10223;50.862;4.360;2023-09-19T03:10:27;11.10;;;2.23;;
20124;SDS011;10223;50.862;4.360;2023-09-19T03:12:55;11.53;;;2.40;;
20124;SDS011;10223;50.862;4.360;2023-09-19T03:15:22;17.43;;;2.97;;
20124;SDS011;10223;50.862;4.360;2023-09-19T03:17:49;12.57;;;2.47;;
20124;SDS011;10223;50.862;4.360;2023-09-19T03:20:17;10.60;;;2.00;;
20124;SDS011;10223;50.862;4.360;2023-09-19T03:22:44;15.53;;;2.63;;
20124;SDS011;10223;50.862;4.360;2023-09-19T03:25:11;9.77;;;2.27;;
20124;SDS011;10223;50.862;4.360;2023-09-19T03:27:40;11.73;;;2.30;;
20124;SDS011;10223;50.862;4.360;2023-09-19T03:30:07;15.20;;;2.73;;
20124;SDS011;10223;50.862;4.360;2023-09-19T03:32:34;9.93;;;1.87;;
20124;SDS011;10223;50.862;4.360;2023-09-19T03:35:02;13.53;;;2.13;;
20124;SDS011;10223;50.862;4.360;2023-09-19T03:37:30;16.30;;;2.47;;
20124;SDS011;10223;50.862;4.360;2023-09-19T03:39:58;13.93;;;2.40;;
20124;SDS011;10223;50.862;4.360;2023-09-19T03:42:29;13.27;;;2.50;;
20124;SDS011;10223;50.862;4.360;2023-09-19T03:44:57;15.03;;;2.30;;
20124;SDS011;10223;50.862;4.360;2023-09-19T03:47:25;18.17;;;2.50;;
20124;SDS011;10223;50.862;4.360;2023-09-19T03:49:52;9.47;;;2.33;;
20124;SDS011;10223;50.862;4.360;2023-09-19T03:52:19;18.07;;;3.00;;
20124;SDS011;10223;50.862;4.360;2023-09-19T03:54:46;17.40;;;3.10;;
20124;SDS011;10223;50.862;4.360;2023-09-19T03:57:13;10.83;;;2.40;;
20124;SDS011;10223;50.862;4.360;2023-09-19T03:59:45;14.37;;;2.80;;
20124;SDS011;10223;50.862;4.360;2023-09-19T04:02:14;17.77;;;3.27;;
20124;SDS011;10223;50.862;4.360;2023-09-19T04:04:47;12.63;;;2.60;;
20124;SDS011;10223;50.862;4.360;2023-09-19T04:07:14;12.80;;;2.60;;
20124;SDS011;10223;50.862;4.360;2023-09-19T04:09:40;14.93;;;2.57;;
20124;SDS011;10223;50.862;4.360;2023-09-19T04:12:07;11.70;;;2.33;;
20124;SDS011;10223;50.862;4.360;2023-09-19T04:14:34;10.53;;;2.03;;
20124;SDS011;10223;50.862;4.360;2023-09-19T04:17:01;20.43;;;2.93;;
20124;SDS011;10223;50.862;4.360;2023-09-19T04:19:29;10.67;;;1.97;;
20124;SDS011;10223;50.862;4.360;2023-09-19T04:21:56;18.00;;;2.47;;
20124;SDS011;10223;50.862;4.360;2023-09-19T04:24:23;21.60;;;3.60;;
20124;SDS011;10223;50.862;4.360;2023-09-19T04:26:50;12.13;;;1.93;;
20124;SDS011;10223;50.862;4.360;2023-09-19T04:29:17;13.50;;;2.47;;
20124;SDS011;10223;50.862;4.360;2023-09-19T04:31:45;19.50;;;2.87;;
20124;SDS011;10223;50.862;4.360;2023-09-19T04:34:12;16.60;;;2.37;;
20124;SDS011;10223;50.862;4.360;2023-09-19T04:36:42;10.53;;;2.57;;
20124;SDS011;10223;50.862;4.360;2023-09-19T04:39:09;12.63;;;2.57;;
20124;SDS011;10223;50.862;4.360;2023-09-19T04:41:38;13.90;;;2.33;;
20124;SDS011;10223;50.862;4.360;2023-09-19T04:44:06;12.07;;;2.13;;
20124;SDS011;10223;50.862;4.360;2023-09-19T04:46:33;14.83;;;2.37;;
20124;SDS011;10223;50.862;4.360;2023-09-19T04:49:00;15.90;;;2.60;;
20124;SDS011;10223;50.862;4.360;2023-09-19T04:51:29;13.53;;;2.30;;
20124;SDS011;10223;50.862;4.360;2023-09-19T04:54:00;13.27;;;2.50;;
20124;SDS011;10223;50.862;4.360;2023-09-19T04:56:27;14.10;;;1.70;;
20124;SDS011;10223;50.862;4.360;2023-09-19T04:58:55;13.73;;;2.53;;
20124;SDS011;10223;50.862;4.360;2023-09-19T05:01:23;16.40;;;2.67;;
20124;SDS011;10223;50.862;4.360;2023-09-19T05:03:50;10.37;;;2.50;;
20124;SDS011;10223;50.862;4.360;2023-09-19T05:06:17;13.47;;;2.10;;
20124;SDS011;10223;50.862;4.360;2023-09-19T05:08:46;14.57;;;2.87;;
20124;SDS011;10223;50.862;4.360;2023-09-19T05:11:17;17.73;;;2.70;;
20124;SDS011;10223;50.862;4.360;2023-09-19T05:13:44;10.00;;;2.13;;
20124;SDS011;10223;50.862;4.360;2023-09-19T05:16:11;18.40;;;2.57;;
20124;SDS011;10223;50.862;4.360;2023-09-19T05:18:37;16.73;;;2.17;;
20124;SDS011;10223;50.862;4.360;2023-09-19T05:21:04;11.90;;;2.30;;
20124;SDS011;10223;50.862;4.360;2023-09-19T05:23:31;15.33;;;2.73;;
20124;SDS011;10223;50.862;4.360;2023-09-19T05:25:58;16.73;;;2.73;;
20124;SDS011;10223;50.862;4.360;2023-09-19T05:28:26;13.97;;;2.90;;
20124;SDS011;10223;50.862;4.360;2023-09-19T05:30:55;11.33;;;2.00;;
20124;SDS011;10223;50.862;4.360;2023-09-19T05:33:22;11.67;;;2.53;;
20124;SDS011;10223;50.862;4.360;2023-09-19T05:35:49;18.17;;;2.90;;
20124;SDS011;10223;50.862;4.360;2023-09-19T05:38:16;19.20;;;3.10;;
20124;SDS011;10223;50.862;4.360;2023-09-19T05:40:44;20.17;;;3.00;;
20124;SDS011;10223;50.862;4.360;2023-09-19T05:43:11;9.60;;;2.40;;
20124;SDS011;10223;50.862;4.360;2023-09-19T05:45:40;14.00;;;3.03;;
20124;SDS011;10223;50.862;4.360;2023-09-19T05:48:11;18.87;;;3.17;;
20124;SDS011;10223;50.862;4.360;2023-09-19T05:50:41;24.37;;;2.83;;
20124;SDS011;10223;50.862;4.360;2023-09-19T05:53:08;15.27;;;2.70;;
20124;SDS011;10223;50.862;4.360;2023-09-19T05:55:37;16.50;;;2.27;;
20124;SDS011;10223;50.862;4.360;2023-09-19T05:58:03;15.13;;;2.70;;
20124;SDS011;10223;50.862;4.360;2023-09-19T06:00:30;19.63;;;2.83;;
20124;SDS011;10223;50.862;4.360;2023-09-19T06:02:59;17.27;;;2.63;;
20124;SDS011;10223;50.862;4.360;2023-09-19T06:05:26;20.13;;;2.50;;
20124;SDS011;10223;50.862;4.360;2023-09-19T06:07:58;10.57;;;2.03;;
20124;SDS011;10223;50.862;4.360;2023-09-19T06:10:35;23.83;;;3.27;;
20124;SDS011;10223;50.862;4.360;2023-09-19T06:13:02;13.80;;;2.10;;
20124;SDS011;10223;50.862;4.360;2023-09-19T06:15:31;11.30;;;2.40;;
20124;SDS011;10223;50.862;4.360;2023-09-19T06:18:02;17.93;;;3.10;;
20124;SDS011;10223;50.862;4.360;2023-09-19T06:20:30;21.13;;;2.63;;
20124;SDS011;10223;50.862;4.360;2023-09-19T06:22:58;11.97;;;2.23;;
20124;SDS011;10223;50.862;4.360;2023-09-19T06:25:27;20.00;;;2.83;;
20124;SDS011;10223;50.862;4.360;2023-09-19T06:27:54;8.53;;;2.77;;
20124;SDS011;10223;50.862;4.360;2023-09-19T06:30:21;14.80;;;2.30;;
20124;SDS011;10223;50.862;4.360;2023-09-19T06:32:49;18.13;;;2.70;;
20124;SDS011;10223;50.862;4.360;2023-09-19T06:35:22;11.27;;;2.43;;
20124;SDS011;10223;50.862;4.360;2023-09-19T06:37:51;15.70;;;2.90;;
20124;SDS011;10223;50.862;4.360;2023-09-19T06:40:18;18.97;;;2.67;;
20124;SDS011;10223;50.862;4.360;2023-09-19T06:42:46;14.43;;;2.20;;
20124;SDS011;10223;50.862;4.360;2023-09-19T06:45:15;17.33;;;2.70;;
20124;SDS011;10223;50.862;4.360;2023-09-19T06:47:43;10.37;;;2.10;;
20124;SDS011;10223;50.862;4.360;2023-09-19T06:50:15;14.47;;;2.80;;
20124;SDS011;10223;50.862;4.360;2023-09-19T06:52:45;13.73;;;2.57;;
20124;SDS011;10223;50.862;4.360;2023-09-19T06:55:15;10.83;;;2.17;;
20124;SDS011;10223;50.862;4.360;2023-09-19T06:57:42;10.70;;;2.00;;
20124;SDS011;10223;50.862;4.360;2023-09-19T07:00:09;14.17;;;2.53;;
20124;SDS011;10223;50.862;4.360;2023-09-19T07:02:43;7.50;;;2.03;;
20124;SDS011;10223;50.862;4.360;2023-09-19T07:05:10;7.43;;;2.10;;
20124;SDS011;10223;50.862;4.360;2023-09-19T07:07:37;9.43;;;2.20;;
20124;SDS011;10223;50.862;4.360;2023-09-19T07:10:06;15.10;;;3.07;;
20124;SDS011;10223;50.862;4.360;2023-09-19T07:12:36;6.17;;;2.13;;
20124;SDS011;10223;50.862;4.360;2023-09-19T07:15:03;13.83;;;2.87;;
20124;SDS011;10223;50.862;4.360;2023-09-19T07:17:31;12.87;;;2.20;;
20124;SDS011;10223;50.862;4.360;2023-09-19T07:19:58;12.77;;;2.00;;
20124;SDS011;10223;50.862;4.360;2023-09-19T07:22:25;10.20;;;1.93;;
20124;SDS011;10223;50.862;4.360;2023-09-19T07:24:52;13.43;;;2.90;;
20124;SDS011;10223;50.862;4.360;2023-09-19T07:27:21;14.40;;;2.93;;
20124;SDS011;10223;50.862;4.360;2023-09-19T07:29:48;11.97;;;2.87;;
20124;SDS011;10223;50.862;4.360;2023-09-19T07:32:14;12.17;;;2.23;;
20124;SDS011;10223;50.862;4.360;2023-09-19T07:34:42;12.87;;;1.83;;
20124;SDS011;10223;50.862;4.360;2023-09-19T07:37:09;13.03;;;2.13;;
20124;SDS011;10223;50.862;4.360;2023-09-19T07:39:38;16.37;;;2.70;;
20124;SDS011;10223;50.862;4.360;2023-09-19T07:42:06;10.37;;;2.37;;
20124;SDS011;10223;50.862;4.360;2023-09-19T07:44:36;16.27;;;2.27;;
20124;SDS011;10223;50.862;4.360;2023-09-19T07:47:03;6.70;;;2.27;;
20124;SDS011;10223;50.862;4.360;2023-09-19T07:49:30;17.70;;;3.13;;
20124;SDS011;10223;50.862;4.360;2023-09-19T07:51:57;14.93;;;2.40;;
20124;SDS011;10223;50.862;4.360;2023-09-19T07:54:24;20.60;;;3.00;;
20124;SDS011;10223;50.862;4.360;2023-09-19T07:56:51;14.57;;;2.70;;
20124;SDS011;10223;50.862;4.360;2023-09-19T07:59:20;17.20;;;2.73;;
20124;SDS011;10223;50.862;4.360;2023-09-19T08:01:49;14.70;;;2.63;;
20124;SDS011;10223;50.862;4.360;2023-09-19T08:04:16;13.47;;;2.40;;
20124;SDS011;10223;50.862;4.360;2023-09-19T08:06:44;13.33;;;3.37;;
20124;SDS011;10223;50.862;4.360;2023-09-19T08:09:11;15.93;;;2.87;;
20124;SDS011;10223;50.862;4.360;2023-09-19T08:11:47;16.63;;;2.07;;
20124;SDS011;10223;50.862;4.360;2023-09-19T08:14:15;16.10;;;2.10;;
20124;SDS011;10223;50.862;4.360;2023-09-19T08:16:42;11.77;;;2.10;;
20124;SDS011;10223;50.862;4.360;2023-09-19T08:19:11;11.57;;;2.60;;
20124;SDS011;10223;50.862;4.360;2023-09-19T08:21:37;15.70;;;2.60;;
20124;SDS011;10223;50.862;4.360;2023-09-19T08:24:04;11.60;;;2.45;;
20124;SDS011;10223;50.862;4.360;2023-09-19T08:26:32;13.93;;;2.25;;
20124;SDS011;10223;50.862;4.360;2023-09-19T08:28:59;13.93;;;2.38;;
20124;SDS011;10223;50.862;4.360;2023-09-19T08:31:29;25.95;;;3.45;;
20124;SDS011;10223;50.862;4.360;2023-09-19T08:33:56;15.98;;;2.35;;
20124;SDS011;10223;50.862;4.360;2023-09-19T08:36:24;17.20;;;2.80;;
20124;SDS011;10223;50.862;4.360;2023-09-19T08:38:51;11.85;;;2.50;;
20124;SDS011;10223;50.862;4.360;2023-09-19T08:41:18;19.35;;;2.50;;
20124;SDS011;10223;50.862;4.360;2023-09-19T08:43:45;13.75;;;2.50;;
20124;SDS011;10223;50.862;4.360;2023-09-19T08:46:14;17.42;;;2.47;;
20124;SDS011;10223;50.862;4.360;2023-09-19T08:48:45;13.20;;;1.73;;
20124;SDS011;10223;50.862;4.360;2023-09-19T08:51:17;19.38;;;2.58;;
20124;SDS011;10223;50.862;4.360;2023-09-19T08:53:54;13.23;;;2.72;;
20124;SDS011;10223;50.862;4.360;2023-09-19T08:56:29;10.82;;;1.88;;
20124;SDS011;10223;50.862;4.360;2023-09-19T08:58:59;10.15;;;2.15;;
20124;SDS011;10223;50.862;4.360;2023-09-19T09:01:28;12.57;;;2.40;;
20124;SDS011;10223;50.862;4.360;2023-09-19T09:03:57;16.88;;;2.42;;
20124;SDS011;10223;50.862;4.360;2023-09-19T09:06:25;13.90;;;1.77;;
20124;SDS011;10223;50.862;4.360;2023-09-19T09:08:54;9.60;;;2.28;;
20124;SDS011;10223;50.862;4.360;2023-09-19T09:11:21;11.98;;;2.03;;
20124;SDS011;10223;50.862;4.360;2023-09-19T09:13:49;19.10;;;2.45;;
20124;SDS011;10223;50.862;4.360;2023-09-19T09:16:16;14.68;;;2.10;;
20124;SDS011;10223;50.862;4.360;2023-09-19T09:18:43;12.18;;;2.33;;
20124;SDS011;10223;50.862;4.360;2023-09-19T09:21:10;9.82;;;1.60;;
20124;SDS011;10223;50.862;4.360;2023-09-19T09:23:40;12.38;;;1.45;;
20124;SDS011;10223;50.862;4.360;2023-09-19T09:26:09;13.80;;;1.90;;
20124;SDS011;10223;50.862;4.360;2023-09-19T09:28:36;12.52;;;2.97;;
20124;SDS011;10223;50.862;4.360;2023-09-19T09:31:15;14.98;;;2.15;;
20124;SDS011;10223;50.862;4.360;2023-09-19T09:33:52;11.88;;;1.80;;
20124;SDS011;10223;50.862;4.360;2023-09-19T09:36:31;16.63;;;2.22;;
20124;SDS011;10223;50.862;4.360;2023-09-19T09:39:01;14.68;;;2.33;;
20124;SDS011;10223;50.862;4.360;2023-09-19T09:41:42;12.93;;;2.08;;
20124;SDS011;10223;50.862;4.360;2023-09-19T09:44:12;12.57;;;2.85;;
20124;SDS011;10223;50.862;4.360;2023-09-19T09:46:42;21.98;;;2.58;;
20124;SDS011;10223;50.862;4.360;2023-09-19T09:49:47;20.33;;;2.00;;
20124;SDS011;10223;50.862;4.360;2023-09-19T09:52:19;11.52;;;1.85;;
20124;SDS011;10223;50.862;4.360;2023-09-19T09:54:58;13.88;;;1.95;;
20124;SDS011;10223;50.862;4.360;2023-09-19T09:57:27;9.88;;;1.80;;
20124;SDS011;10223;50.862;4.360;2023-09-19T09:59:56;13.10;;;1.85;;
20124;SDS011;10223;50.862;4.360;2023-09-19T10:02:25;12.93;;;2.75;;
20124;SDS011;10223;50.862;4.360;2023-09-19T10:04:55;5.15;;;1.13;;
20124;SDS011;10223;50.862;4.360;2023-09-19T10:07:39;9.70;;;1.80;;
20124;SDS011;10223;50.862;4.360;2023-09-19T10:10:12;19.77;;;2.20;;
20124;SDS011;10223;50.862;4.360;2023-09-19T10:12:44;7.82;;;1.30;;
20124;SDS011;10223;50.862;4.360;2023-09-19T10:15:14;8.48;;;1.60;;
20124;SDS011;10223;50.862;4.360;2023-09-19T10:17:45;13.10;;;2.15;;
20124;SDS011;10223;50.862;4.360;2023-09-19T10:20:13;14.68;;;2.13;;
20124;SDS011;10223;50.862;4.360;2023-09-19T10:23:01;8.73;;;1.52;;
20124;SDS011;10223;50.862;4.360;2023-09-19T10:25:34;12.27;;;1.70;;
20124;SDS011;10223;50.862;4.360;2023-09-19T10:28:05;7.90;;;1.70;;
20124;SDS011;10223;50.862;4.360;2023-09-19T10:30:36;8.73;;;2.35;;
20124;SDS011;10223;50.862;4.360;2023-09-19T10:33:10;7.43;;;1.20;;
20124;SDS011;10223;50.862;4.360;2023-09-19T10:35:38;6.50;;;1.30;;
20124;SDS011;10223;50.862;4.360;2023-09-19T10:38:06;9.98;;;1.85;;
20124;SDS011;10223;50.862;4.360;2023-09-19T10:40:35;10.18;;;1.70;;
20124;SDS011;10223;50.862;4.360;2023-09-19T10:43:11;6.93;;;1.33;;
20124;SDS011;10223;50.862;4.360;2023-09-19T10:45:39;6.20;;;1.63;;
20124;SDS011;10223;50.862;4.360;2023-09-19T10:48:07;20.70;;;2.00;;
20124;SDS011;10223;50.862;4.360;2023-09-19T10:50:41;7.75;;;1.58;;
20124;SDS011;10223;50.862;4.360;2023-09-19T10:53:13;17.00;;;2.30;;
20124;SDS011;10223;50.862;4.360;2023-09-19T10:55:40;17.88;;;1.67;;
20124;SDS011;10223;50.862;4.360;2023-09-19T10:58:16;13.75;;;1.58;;
20124;SDS011;10223;50.862;4.360;2023-09-19T11:00:54;13.90;;;2.22;;
20124;SDS011;10223;50.862;4.360;2023-09-19T11:03:22;17.02;;;1.77;;
20124;SDS011;10223;50.862;4.360;2023-09-19T11:06:05;8.77;;;1.80;;
20124;SDS011;10223;50.862;4.360;2023-09-19T11:08:54;19.17;;;1.92;;
20124;SDS011;10223;50.862;4.360;2023-09-19T11:11:43;10.57;;;1.75;;
20124;SDS011;10223;50.862;4.360;2023-09-19T11:14:32;14.13;;;1.80;;
20124;SDS011;10223;50.862;4.360;2023-09-19T11:23:19;27.67;;;2.25;;
20124;SDS011;10223;50.862;4.360;2023-09-19T11:25:49;6.70;;;1.50;;
20124;SDS011;10223;50.862;4.360;2023-09-19T11:28:27;5.60;;;1.08;;
20124;SDS011;10223;50.862;4.360;2023-09-19T11:40:35;17.48;;;1.83;;
20124;SDS011;10223;50.862;4.360;2023-09-19T11:46:08;6.43;;;1.27;;
20124;SDS011;10223;50.862;4.360;2023-09-19T11:48:37;19.83;;;1.83;;
20124;SDS011;10223;50.862;4.360;2023-09-19T11:51:14;10.52;;;1.50;;
20124;SDS011;10223;50.862;4.360;2023-09-19T11:53:47;5.63;;;1.27;;
20124;SDS011;10223;50.862;4.360;2023-09-19T11:56:15;13.07;;;1.48;;
20124;SDS011;10223;50.862;4.360;2023-09-19T11:58:43;14.27;;;1.85;;
20124;SDS011;10223;50.862;4.360;2023-09-19T12:01:12;17.08;;;2.08;;
20124;SDS011;10223;50.862;4.360;2023-09-19T12:03:45;9.20;;;2.15;;
20124;SDS011;10223;50.862;4.360;2023-09-19T12:06:16;7.70;;;1.08;;
20124;SDS011;10223;50.862;4.360;2023-09-19T12:08:43;6.13;;;1.40;;
20124;SDS011;10223;50.862;4.360;2023-09-19T12:11:12;9.70;;;1.55;;
20124;SDS011;10223;50.862;4.360;2023-09-19T12:13:44;11.50;;;1.55;;
20124;SDS011;10223;50.862;4.360;2023-09-19T12:16:12;6.18;;;1.00;;
20124;SDS011;10223;50.862;4.360;2023-09-19T12:18:40;8.93;;;1.50;;
20124;SDS011;10223;50.862;4.360;2023-09-19T12:21:22;6.78;;;1.30;;
20124;SDS011;10223;50.862;4.360;2023-09-19T12:24:04;13.98;;;1.58;;
20124;SDS011;10223;50.862;4.360;2023-09-19T12:26:38;22.98;;;1.83;;
20124;SDS011;10223;50.862;4.360;2023-09-19T12:29:10;4.70;;;1.23;;
20124;SDS011;10223;50.862;4.360;2023-09-19T12:31:49;8.45;;;1.35;;
20124;SDS011;10223;50.862;4.360;2023-09-19T12:34:19;8.35;;;1.45;;
20124;SDS011;10223;50.862;4.360;2023-09-19T12:36:47;11.68;;;2.20;;
20124;SDS011;10223;50.862;4.360;2023-09-19T12:39:23;8.65;;;1.20;;
20124;SDS011;10223;50.862;4.360;2023-09-19T12:41:51;6.93;;;1.20;;
20124;SDS011;10223;50.862;4.360;2023-09-19T12:44:19;3.70;;;1.30;;
20124;SDS011;10223;50.862;4.360;2023-09-19T12:46:50;5.95;;;1.45;;
20124;SDS011;10223;50.862;4.360;2023-09-19T12:49:19;7.10;;;0.90;;
20124;SDS011;10223;50.862;4.360;2023-09-19T12:51:49;7.75;;;1.30;;
20124;SDS011;10223;50.862;4.360;2023-09-19T12:54:21;8.02;;;1.20;;
20124;SDS011;10223;50.862;4.360;2023-09-19T12:56:50;7.18;;;1.30;;
20124;SDS011;10223;50.862;4.360;2023-09-19T12:59:19;9.02;;;1.48;;
20124;SDS011;10223;50.862;4.360;2023-09-19T13:02:03;35.63;;;3.13;;
20124;SDS011;10223;50.862;4.360;2023-09-19T13:04:32;18.00;;;1.67;;
20124;SDS011;10223;50.862;4.360;2023-09-19T13:07:06;6.00;;;1.10;;
20124;SDS011;10223;50.862;4.360;2023-09-19T13:09:34;9.95;;;1.17;;
20124;SDS011;10223;50.862;4.360;2023-09-19T13:12:01;8.35;;;1.00;;
20124;SDS011;10223;50.862;4.360;2023-09-19T13:14:29;13.10;;;1.83;;
20124;SDS011;10223;50.862;4.360;2023-09-19T13:16:59;6.63;;;1.27;;
20124;SDS011;10223;50.862;4.360;2023-09-19T13:19:36;5.60;;;1.20;;
20124;SDS011;10223;50.862;4.360;2023-09-19T13:22:06;10.95;;;1.40;;
20124;SDS011;10223;50.862;4.360;2023-09-19T13:25:03;4.72;;;1.00;;
20124;SDS011;10223;50.862;4.360;2023-09-19T13:27:31;5.65;;;1.08;;
20124;SDS011;10223;50.862;4.360;2023-09-19T13:29:58;11.73;;;1.20;;
20124;SDS011;10223;50.862;4.360;2023-09-19T13:32:25;3.35;;;1.30;;
20124;SDS011;10223;50.862;4.360;2023-09-19T13:34:52;7.32;;;1.45;;
20124;SDS011;10223;50.862;4.360;2023-09-19T13:37:20;6.93;;;1.23;;
20124;SDS011;10223;50.862;4.360;2023-09-19T13:39:47;10.52;;;1.20;;
20124;SDS011;10223;50.862;4.360;2023-09-19T13:42:14;10.60;;;1.35;;
20124;SDS011;10223;50.862;4.360;2023-09-19T13:44:41;4.85;;;1.42;;
20124;SDS011;10223;50.862;4.360;2023-09-19T13:47:08;4.00;;;1.20;;
20124;SDS011;10223;50.862;4.360;2023-09-19T13:49:38;3.85;;;0.95;;
20124;SDS011;10223;50.862;4.360;2023-09-19T13:52:05;6.28;;;1.33;;
20124;SDS011;10223;50.862;4.360;2023-09-19T13:54:34;3.58;;;1.02;;
20124;SDS011;10223;50.862;4.360;2023-09-19T13:57:00;7.40;;;1.65;;
20124;SDS011;10223;50.862;4.360;2023-09-19T13:59:27;4.28;;;1.02;;
20124;SDS011;10223;50.862;4.360;2023-09-19T14:01:56;7.68;;;1.25;;
20124;SDS011;10223;50.862;4.360;2023-09-19T14:04:25;8.02;;;1.40;;
20124;SDS011;10223;50.862;4.360;2023-09-19T14:06:53;7.20;;;1.10;;
20124;SDS011;10223;50.862;4.360;2023-09-19T14:09:22;4.05;;;1.25;;
20124;SDS011;10223;50.862;4.360;2023-09-19T14:11:51;8.02;;;1.60;;
20124;SDS011;10223;50.862;4.360;2023-09-19T14:14:18;8.98;;;1.15;;
20124;SDS011;10223;50.862;4.360;2023-09-19T14:16:45;5.00;;;0.93;;
20124;SDS011;10223;50.862;4.360;2023-09-19T14:19:13;10.82;;;1.80;;
20124;SDS011;10223;50.862;4.360;2023-09-19T14:21:41;8.50;;;1.63;;
20124;SDS011;10223;50.862;4.360;2023-09-19T14:24:08;6.80;;;1.60;;
20124;SDS011;10223;50.862;4.360;2023-09-19T14:26:36;7.47;;;1.40;;
20124;SDS011;10223;50.862;4.360;2023-09-19T14:29:05;9.18;;;1.50;;
20124;SDS011;10223;50.862;4.360;2023-09-19T14:31:36;8.13;;;1.50;;
20124;SDS011;10223;50.862;4.360;2023-09-19T14:34:05;4.20;;;1.27;;
20124;SDS011;10223;50.862;4.360;2023-09-19T14:36:31;8.85;;;1.63;;
20124;SDS011;10223;50.862;4.360;2023-09-19T14:39:00;6.78;;;1.40;;
20124;SDS011;10223;50.862;4.360;2023-09-19T14:41:27;6.55;;;1.48;;
20124;SDS011;10223;50.862;4.360;2023-09-19T14:43:56;4.43;;;1.42;;
20124;SDS011;10223;50.862;4.360;2023-09-19T14:46:24;10.38;;;1.35;;
20124;SDS011;10223;50.862;4.360;2023-09-19T14:48:51;13.00;;;1.40;;
20124;SDS011;10223;50.862;4.360;2023-09-19T14:51:18;4.20;;;1.40;;
20124;SDS011;10223;50.862;4.360;2023-09-19T14:53:45;11.38;;;1.55;;
20124;SDS011;10223;50.862;4.360;2023-09-19T14:56:13;9.57;;;1.77;;
20124;SDS011;10223;50.862;4.360;2023-09-19T14:58:43;8.40;;;1.40;;
20124;SDS011;10223;50.862;4.360;2023-09-19T15:01:10;5.28;;;1.45;;
20124;SDS011;10223;50.862;4.360;2023-09-19T15:03:39;10.88;;;1.70;;
20124;SDS011;10223;50.862;4.360;2023-09-19T15:06:08;6.75;;;1.50;;
20124;SDS011;10223;50.862;4.360;2023-09-19T15:08:39;6.78;;;1.50;;
20124;SDS011;10223;50.862;4.360;2023-09-19T15:11:10;6.38;;;1.52;;